sensor_id;sensor_type;location;lat;lon;timestamp;P1;durP1;ratioP1;P2;durP2;ratioP2
68432;SDS011;55412;51.350;17.056;2023-09-07T00:00:22;7.47;;;3.72;;
68432;SDS011;55412;51.350;17.056;2023-09-07T00:02:49;7.67;;;3.70;;
68432;SDS011;55412;51.350;17.056;2023-09-07T00:05:15;7.82;;;3.40;;
68432;SDS011;55412;51.350;17.056;2023-09-07T00:07:41;7.88;;;3.58;;
68432;SDS011;55412;51.350;17.056;2023-09-07T00:10:07;8.02;;;3.03;;
68432;SDS011;55412;51.350;17.056;2023-09-07T00:12:40;8.32;;;3.40;;
68432;SDS011;55412;51.350;17.056;2023-09-07T00:15:06;8.17;;;3.43;;
68432;SDS011;55412;51.350;17.056;2023-09-07T00:17:33;7.97;;;3.33;;
68432;SDS011;55412;51.350;17.056;2023-09-07T00:20:00;10.27;;;4.32;;
68432;SDS011;55412;51.350;17.056;2023-09-07T00:22:26;7.60;;;3.22;;
68432;SDS011;55412;51.350;17.056;2023-09-07T00:24:52;9.35;;;3.50;;
68432;SDS011;55412;51.350;17.056;2023-09-07T00:27:18;8.20;;;3.17;;
68432;SDS011;55412;51.350;17.056;2023-09-07T00:29:45;6.47;;;2.72;;
68432;SDS011;55412;51.350;17.056;2023-09-07T00:32:11;8.15;;;3.58;;
68432;SDS011;55412;51.350;17.056;2023-09-07T00:34:37;6.82;;;3.38;;
68432;SDS011;55412;51.350;17.056;2023-09-07T00:37:03;10.02;;;2.63;;
68432;SDS011;55412;51.350;17.056;2023-09-07T00:39:29;7.77;;;3.20;;
68432;SDS011;55412;51.350;17.056;2023-09-07T00:41:55;9.32;;;3.47;;
68432;SDS011;55412;51.350;17.056;2023-09-07T00:44:21;9.57;;;4.45;;
68432;SDS011;55412;51.350;17.056;2023-09-07T00:46:48;6.43;;;3.08;;
68432;SDS011;55412;51.350;17.056;2023-09-07T00:49:14;7.65;;;2.88;;
68432;SDS011;55412;51.350;17.056;2023-09-07T00:51:40;11.73;;;3.67;;
68432;SDS011;55412;51.350;17.056;2023-09-07T00:54:06;10.57;;;3.20;;
68432;SDS011;55412;51.350;17.056;2023-09-07T00:56:33;9.93;;;3.70;;
68432;SDS011;55412;51.350;17.056;2023-09-07T00:59:01;9.40;;;2.40;;
68432;SDS011;55412;51.350;17.056;2023-09-07T01:01:28;8.25;;;3.22;;
68432;SDS011;55412;51.350;17.056;2023-09-07T01:03:56;10.10;;;4.33;;
68432;SDS011;55412;51.350;17.056;2023-09-07T01:06:24;12.48;;;4.13;;
68432;SDS011;55412;51.350;17.056;2023-09-07T01:09:01;8.18;;;3.78;;
68432;SDS011;55412;51.350;17.056;2023-09-07T01:11:38;8.18;;;3.35;;
68432;SDS011;55412;51.350;17.056;2023-09-07T01:14:04;9.38;;;3.65;;
68432;SDS011;55412;51.350;17.056;2023-09-07T01:16:31;8.07;;;3.57;;
68432;SDS011;55412;51.350;17.056;2023-09-07T01:18:59;7.90;;;3.40;;
68432;SDS011;55412;51.350;17.056;2023-09-07T01:21:27;9.40;;;3.90;;
68432;SDS011;55412;51.350;17.056;2023-09-07T01:24:07;8.63;;;3.40;;
68432;SDS011;55412;51.350;17.056;2023-09-07T01:26:35;7.95;;;3.25;;
68432;SDS011;55412;51.350;17.056;2023-09-07T01:29:05;6.30;;;2.60;;
68432;SDS011;55412;51.350;17.056;2023-09-07T01:31:37;7.93;;;3.05;;
68432;SDS011;55412;51.350;17.056;2023-09-07T01:34:04;7.45;;;3.10;;
68432;SDS011;55412;51.350;17.056;2023-09-07T01:36:34;7.13;;;3.22;;
68432;SDS011;55412;51.350;17.056;2023-09-07T01:39:01;7.82;;;3.33;;
68432;SDS011;55412;51.350;17.056;2023-09-07T01:41:30;8.13;;;2.70;;
68432;SDS011;55412;51.350;17.056;2023-09-07T01:43:56;6.80;;;3.30;;
68432;SDS011;55412;51.350;17.056;2023-09-07T01:46:23;7.47;;;4.05;;
68432;SDS011;55412;51.350;17.056;2023-09-07T01:48:49;7.50;;;4.45;;
68432;SDS011;55412;51.350;17.056;2023-09-07T01:51:15;9.50;;;4.43;;
68432;SDS011;55412;51.350;17.056;2023-09-07T01:53:41;7.77;;;4.20;;
68432;SDS011;55412;51.350;17.056;2023-09-07T01:56:08;7.90;;;4.13;;
68432;SDS011;55412;51.350;17.056;2023-09-07T01:58:34;9.85;;;4.90;;
68432;SDS011;55412;51.350;17.056;2023-09-07T02:01:01;9.50;;;4.28;;
68432;SDS011;55412;51.350;17.056;2023-09-07T02:03:27;11.55;;;4.45;;
68432;SDS011;55412;51.350;17.056;2023-09-07T02:05:54;8.77;;;4.70;;
68432;SDS011;55412;51.350;17.056;2023-09-07T02:08:20;10.30;;;5.13;;
68432;SDS011;55412;51.350;17.056;2023-09-07T02:10:46;8.57;;;4.15;;
68432;SDS011;55412;51.350;17.056;2023-09-07T02:13:13;10.52;;;4.15;;
68432;SDS011;55412;51.350;17.056;2023-09-07T02:15:39;9.27;;;3.75;;
68432;SDS011;55412;51.350;17.056;2023-09-07T02:18:05;8.33;;;3.33;;
68432;SDS011;55412;51.350;17.056;2023-09-07T02:20:32;10.27;;;3.75;;
68432;SDS011;55412;51.350;17.056;2023-09-07T02:22:58;8.55;;;4.03;;
68432;SDS011;55412;51.350;17.056;2023-09-07T02:25:25;10.30;;;4.28;;
68432;SDS011;55412;51.350;17.056;2023-09-07T02:27:52;9.43;;;4.53;;
68432;SDS011;55412;51.350;17.056;2023-09-07T02:30:19;8.03;;;4.43;;
68432;SDS011;55412;51.350;17.056;2023-09-07T02:32:46;9.07;;;4.25;;
68432;SDS011;55412;51.350;17.056;2023-09-07T02:35:12;9.93;;;4.03;;
68432;SDS011;55412;51.350;17.056;2023-09-07T02:37:38;9.55;;;4.72;;
68432;SDS011;55412;51.350;17.056;2023-09-07T02:40:04;11.48;;;4.35;;
68432;SDS011;55412;51.350;17.056;2023-09-07T02:42:34;7.90;;;3.93;;
68432;SDS011;55412;51.350;17.056;2023-09-07T02:45:00;11.50;;;4.20;;
68432;SDS011;55412;51.350;17.056;2023-09-07T02:47:33;8.73;;;3.70;;
68432;SDS011;55412;51.350;17.056;2023-09-07T02:49:59;9.85;;;3.80;;
68432;SDS011;55412;51.350;17.056;2023-09-07T02:52:25;10.00;;;4.28;;
68432;SDS011;55412;51.350;17.056;2023-09-07T02:54:52;7.93;;;3.30;;
68432;SDS011;55412;51.350;17.056;2023-09-07T02:57:18;8.55;;;3.78;;
68432;SDS011;55412;51.350;17.056;2023-09-07T02:59:44;10.10;;;3.42;;
68432;SDS011;55412;51.350;17.056;2023-09-07T03:02:10;6.45;;;3.15;;
68432;SDS011;55412;51.350;17.056;2023-09-07T03:04:37;7.40;;;2.95;;
68432;SDS011;55412;51.350;17.056;2023-09-07T03:07:03;7.00;;;3.10;;
68432;SDS011;55412;51.350;17.056;2023-09-07T03:09:29;6.40;;;3.30;;
68432;SDS011;55412;51.350;17.056;2023-09-07T03:11:55;8.82;;;3.72;;
68432;SDS011;55412;51.350;17.056;2023-09-07T03:14:21;6.63;;;3.05;;
68432;SDS011;55412;51.350;17.056;2023-09-07T03:16:48;10.93;;;3.35;;
68432;SDS011;55412;51.350;17.056;2023-09-07T03:19:15;7.57;;;3.40;;
68432;SDS011;55412;51.350;17.056;2023-09-07T03:21:41;7.93;;;3.70;;
68432;SDS011;55412;51.350;17.056;2023-09-07T03:24:08;9.32;;;3.90;;
68432;SDS011;55412;51.350;17.056;2023-09-07T03:26:34;9.27;;;4.93;;
68432;SDS011;55412;51.350;17.056;2023-09-07T03:29:00;9.55;;;4.95;;
68432;SDS011;55412;51.350;17.056;2023-09-07T03:31:26;8.33;;;4.40;;
68432;SDS011;55412;51.350;17.056;2023-09-07T03:33:52;9.65;;;4.43;;
68432;SDS011;55412;51.350;17.056;2023-09-07T03:36:19;10.07;;;4.15;;
68432;SDS011;55412;51.350;17.056;2023-09-07T03:38:47;7.88;;;4.43;;
68432;SDS011;55412;51.350;17.056;2023-09-07T03:41:13;10.98;;;4.38;;
68432;SDS011;55412;51.350;17.056;2023-09-07T03:43:39;9.53;;;4.27;;
68432;SDS011;55412;51.350;17.056;2023-09-07T03:46:05;9.05;;;4.55;;
68432;SDS011;55412;51.350;17.056;2023-09-07T03:48:31;9.50;;;5.30;;
68432;SDS011;55412;51.350;17.056;2023-09-07T03:50:57;12.68;;;4.75;;
68432;SDS011;55412;51.350;17.056;2023-09-07T03:53:23;12.45;;;4.63;;
68432;SDS011;55412;51.350;17.056;2023-09-07T03:55:50;11.20;;;4.43;;
68432;SDS011;55412;51.350;17.056;2023-09-07T03:58:16;7.60;;;3.85;;
68432;SDS011;55412;51.350;17.056;2023-09-07T04:00:43;8.57;;;3.78;;
68432;SDS011;55412;51.350;17.056;2023-09-07T04:03:10;8.15;;;3.78;;
68432;SDS011;55412;51.350;17.056;2023-09-07T04:05:39;11.43;;;3.85;;
68432;SDS011;55412;51.350;17.056;2023-09-07T04:08:05;9.83;;;3.90;;
68432;SDS011;55412;51.350;17.056;2023-09-07T04:10:31;11.30;;;3.63;;
68432;SDS011;55412;51.350;17.056;2023-09-07T04:12:57;9.27;;;3.60;;
68432;SDS011;55412;51.350;17.056;2023-09-07T04:15:23;9.30;;;3.17;;
68432;SDS011;55412;51.350;17.056;2023-09-07T04:17:51;7.18;;;3.42;;
68432;SDS011;55412;51.350;17.056;2023-09-07T04:20:20;9.10;;;4.30;;
68432;SDS011;55412;51.350;17.056;2023-09-07T04:22:46;12.45;;;4.60;;
68432;SDS011;55412;51.350;17.056;2023-09-07T04:25:12;9.90;;;4.25;;
68432;SDS011;55412;51.350;17.056;2023-09-07T04:27:38;13.75;;;4.60;;
68432;SDS011;55412;51.350;17.056;2023-09-07T04:30:05;9.73;;;4.57;;
68432;SDS011;55412;51.350;17.056;2023-09-07T04:32:32;10.33;;;4.90;;
68432;SDS011;55412;51.350;17.056;2023-09-07T04:34:58;13.60;;;4.50;;
68432;SDS011;55412;51.350;17.056;2023-09-07T04:37:24;9.65;;;4.40;;
68432;SDS011;55412;51.350;17.056;2023-09-07T04:39:51;8.20;;;3.30;;
68432;SDS011;55412;51.350;17.056;2023-09-07T04:42:19;8.57;;;3.50;;
68432;SDS011;55412;51.350;17.056;2023-09-07T04:44:48;9.87;;;4.40;;
68432;SDS011;55412;51.350;17.056;2023-09-07T04:47:15;10.57;;;3.95;;
68432;SDS011;55412;51.350;17.056;2023-09-07T04:49:41;10.00;;;3.58;;
68432;SDS011;55412;51.350;17.056;2023-09-07T04:52:07;7.30;;;3.40;;
68432;SDS011;55412;51.350;17.056;2023-09-07T04:54:34;9.90;;;3.75;;
68432;SDS011;55412;51.350;17.056;2023-09-07T04:57:01;8.97;;;3.20;;
68432;SDS011;55412;51.350;17.056;2023-09-07T04:59:27;10.13;;;3.28;;
68432;SDS011;55412;51.350;17.056;2023-09-07T05:01:53;9.15;;;3.90;;
68432;SDS011;55412;51.350;17.056;2023-09-07T05:04:19;11.45;;;4.97;;
68432;SDS011;55412;51.350;17.056;2023-09-07T05:06:45;10.13;;;4.97;;
68432;SDS011;55412;51.350;17.056;2023-09-07T05:09:11;11.50;;;5.13;;
68432;SDS011;55412;51.350;17.056;2023-09-07T05:11:37;13.38;;;5.30;;
68432;SDS011;55412;51.350;17.056;2023-09-07T05:14:04;12.93;;;5.28;;
68432;SDS011;55412;51.350;17.056;2023-09-07T05:16:30;9.82;;;4.80;;
68432;SDS011;55412;51.350;17.056;2023-09-07T05:18:56;13.00;;;5.30;;
68432;SDS011;55412;51.350;17.056;2023-09-07T05:21:22;10.43;;;4.83;;
68432;SDS011;55412;51.350;17.056;2023-09-07T05:23:48;10.10;;;5.07;;
68432;SDS011;55412;51.350;17.056;2023-09-07T05:26:14;9.60;;;5.07;;
68432;SDS011;55412;51.350;17.056;2023-09-07T05:28:46;10.90;;;4.90;;
68432;SDS011;55412;51.350;17.056;2023-09-07T05:31:12;12.93;;;5.20;;
68432;SDS011;55412;51.350;17.056;2023-09-07T05:33:38;12.43;;;5.20;;
68432;SDS011;55412;51.350;17.056;2023-09-07T05:36:05;11.73;;;5.40;;
68432;SDS011;55412;51.350;17.056;2023-09-07T05:38:31;11.00;;;5.43;;
68432;SDS011;55412;51.350;17.056;2023-09-07T05:40:57;11.77;;;5.28;;
68432;SDS011;55412;51.350;17.056;2023-09-07T05:43:23;12.25;;;5.70;;
68432;SDS011;55412;51.350;17.056;2023-09-07T05:45:50;12.47;;;6.00;;
68432;SDS011;55412;51.350;17.056;2023-09-07T05:48:16;10.32;;;5.30;;
68432;SDS011;55412;51.350;17.056;2023-09-07T05:50:42;13.40;;;5.28;;
68432;SDS011;55412;51.350;17.056;2023-09-07T05:53:09;10.30;;;5.80;;
68432;SDS011;55412;51.350;17.056;2023-09-07T05:55:35;9.23;;;5.47;;
68432;SDS011;55412;51.350;17.056;2023-09-07T05:58:05;12.13;;;5.07;;
68432;SDS011;55412;51.350;17.056;2023-09-07T06:00:33;10.65;;;5.43;;
68432;SDS011;55412;51.350;17.056;2023-09-07T06:03:01;12.90;;;5.65;;
68432;SDS011;55412;51.350;17.056;2023-09-07T06:05:28;9.98;;;4.63;;
68432;SDS011;55412;51.350;17.056;2023-09-07T06:07:54;10.45;;;4.97;;
68432;SDS011;55412;51.350;17.056;2023-09-07T06:10:20;12.03;;;5.40;;
68432;SDS011;55412;51.350;17.056;2023-09-07T06:12:47;10.98;;;6.18;;
68432;SDS011;55412;51.350;17.056;2023-09-07T06:15:13;10.27;;;5.75;;
68432;SDS011;55412;51.350;17.056;2023-09-07T06:17:39;10.85;;;5.63;;
68432;SDS011;55412;51.350;17.056;2023-09-07T06:20:05;14.43;;;5.80;;
68432;SDS011;55412;51.350;17.056;2023-09-07T06:22:35;9.60;;;4.60;;
68432;SDS011;55412;51.350;17.056;2023-09-07T06:25:01;10.00;;;5.03;;
68432;SDS011;55412;51.350;17.056;2023-09-07T06:27:27;15.95;;;5.30;;
68432;SDS011;55412;51.350;17.056;2023-09-07T06:29:53;12.30;;;5.78;;
68432;SDS011;55412;51.350;17.056;2023-09-07T06:32:20;13.57;;;5.93;;
68432;SDS011;55412;51.350;17.056;2023-09-07T06:34:46;11.87;;;4.77;;
68432;SDS011;55412;51.350;17.056;2023-09-07T06:37:13;16.85;;;5.20;;
68432;SDS011;55412;51.350;17.056;2023-09-07T06:39:39;12.52;;;5.53;;
68432;SDS011;55412;51.350;17.056;2023-09-07T06:42:08;15.68;;;5.75;;
68432;SDS011;55412;51.350;17.056;2023-09-07T06:44:37;11.63;;;4.90;;
68432;SDS011;55412;51.350;17.056;2023-09-07T06:47:03;10.43;;;5.20;;
68432;SDS011;55412;51.350;17.056;2023-09-07T06:49:30;14.40;;;5.50;;
68432;SDS011;55412;51.350;17.056;2023-09-07T06:51:56;13.52;;;5.18;;
68432;SDS011;55412;51.350;17.056;2023-09-07T06:54:22;14.05;;;5.22;;
68432;SDS011;55412;51.350;17.056;2023-09-07T06:56:48;12.88;;;5.28;;
68432;SDS011;55412;51.350;17.056;2023-09-07T06:59:15;12.80;;;5.67;;
68432;SDS011;55412;51.350;17.056;2023-09-07T07:01:41;17.92;;;5.25;;
68432;SDS011;55412;51.350;17.056;2023-09-07T07:04:07;16.70;;;5.15;;
68432;SDS011;55412;51.350;17.056;2023-09-07T07:06:35;14.00;;;4.35;;
68432;SDS011;55412;51.350;17.056;2023-09-07T07:09:05;14.23;;;4.32;;
68432;SDS011;55412;51.350;17.056;2023-09-07T07:11:31;10.07;;;4.67;;
68432;SDS011;55412;51.350;17.056;2023-09-07T07:13:57;9.27;;;4.43;;
68432;SDS011;55412;51.350;17.056;2023-09-07T07:16:23;8.77;;;4.13;;
68432;SDS011;55412;51.350;17.056;2023-09-07T07:18:49;8.07;;;4.80;;
68432;SDS011;55412;51.350;17.056;2023-09-07T07:21:20;8.68;;;5.25;;
68432;SDS011;55412;51.350;17.056;2023-09-07T07:23:46;11.47;;;4.50;;
68432;SDS011;55412;51.350;17.056;2023-09-07T07:26:12;9.93;;;4.38;;
68432;SDS011;55412;51.350;17.056;2023-09-07T07:28:38;9.15;;;4.40;;
68432;SDS011;55412;51.350;17.056;2023-09-07T07:31:08;8.85;;;4.28;;
68432;SDS011;55412;51.350;17.056;2023-09-07T07:33:35;11.43;;;4.80;;
68432;SDS011;55412;51.350;17.056;2023-09-07T07:36:02;11.07;;;4.67;;
68432;SDS011;55412;51.350;17.056;2023-09-07T07:38:29;9.45;;;4.18;;
68432;SDS011;55412;51.350;17.056;2023-09-07T07:40:57;8.93;;;4.90;;
68432;SDS011;55412;51.350;17.056;2023-09-07T07:43:24;9.68;;;3.70;;
68432;SDS011;55412;51.350;17.056;2023-09-07T07:45:54;10.27;;;4.15;;
68432;SDS011;55412;51.350;17.056;2023-09-07T07:48:20;10.50;;;4.60;;
68432;SDS011;55412;51.350;17.056;2023-09-07T07:50:49;8.15;;;3.50;;
68432;SDS011;55412;51.350;17.056;2023-09-07T07:53:15;8.57;;;3.63;;
68432;SDS011;55412;51.350;17.056;2023-09-07T07:55:41;7.05;;;3.50;;
68432;SDS011;55412;51.350;17.056;2023-09-07T07:58:08;9.25;;;4.00;;
68432;SDS011;55412;51.350;17.056;2023-09-07T08:00:35;7.10;;;3.33;;
68432;SDS011;55412;51.350;17.056;2023-09-07T08:03:02;9.40;;;4.03;;
68432;SDS011;55412;51.350;17.056;2023-09-07T08:05:34;8.35;;;4.15;;
68432;SDS011;55412;51.350;17.056;2023-09-07T08:08:00;10.95;;;3.83;;
68432;SDS011;55412;51.350;17.056;2023-09-07T08:10:28;8.63;;;3.70;;
68432;SDS011;55412;51.350;17.056;2023-09-07T08:12:54;6.90;;;3.60;;
68432;SDS011;55412;51.350;17.056;2023-09-07T08:15:22;9.32;;;3.80;;
68432;SDS011;55412;51.350;17.056;2023-09-07T08:17:50;8.35;;;3.63;;
68432;SDS011;55412;51.350;17.056;2023-09-07T08:20:16;10.43;;;3.35;;
68432;SDS011;55412;51.350;17.056;2023-09-07T08:22:43;8.77;;;4.63;;
68432;SDS011;55412;51.350;17.056;2023-09-07T08:25:11;7.17;;;3.43;;
68432;SDS011;55412;51.350;17.056;2023-09-07T08:27:39;6.82;;;3.72;;
68432;SDS011;55412;51.350;17.056;2023-09-07T08:30:11;7.22;;;3.65;;
68432;SDS011;55412;51.350;17.056;2023-09-07T08:32:40;10.05;;;3.80;;
68432;SDS011;55412;51.350;17.056;2023-09-07T08:35:08;11.13;;;4.55;;
68432;SDS011;55412;51.350;17.056;2023-09-07T08:37:39;6.83;;;3.03;;
68432;SDS011;55412;51.350;17.056;2023-09-07T08:40:07;8.98;;;3.88;;
68432;SDS011;55412;51.350;17.056;2023-09-07T08:42:37;8.88;;;3.42;;
68432;SDS011;55412;51.350;17.056;2023-09-07T08:45:04;8.75;;;3.30;;
68432;SDS011;55412;51.350;17.056;2023-09-07T08:47:34;10.15;;;3.78;;
68432;SDS011;55412;51.350;17.056;2023-09-07T08:50:04;9.13;;;3.87;;
68432;SDS011;55412;51.350;17.056;2023-09-07T08:52:38;8.15;;;3.88;;
68432;SDS011;55412;51.350;17.056;2023-09-07T08:55:05;8.15;;;4.13;;
68432;SDS011;55412;51.350;17.056;2023-09-07T08:57:34;7.50;;;3.55;;
68432;SDS011;55412;51.350;17.056;2023-09-07T09:00:00;9.90;;;4.10;;
68432;SDS011;55412;51.350;17.056;2023-09-07T09:02:32;7.73;;;3.90;;
68432;SDS011;55412;51.350;17.056;2023-09-07T09:04:58;7.47;;;4.03;;
68432;SDS011;55412;51.350;17.056;2023-09-07T09:07:25;8.60;;;4.63;;
68432;SDS011;55412;51.350;17.056;2023-09-07T09:10:01;14.07;;;3.90;;
68432;SDS011;55412;51.350;17.056;2023-09-07T09:12:35;7.05;;;4.50;;
68432;SDS011;55412;51.350;17.056;2023-09-07T09:15:01;8.30;;;4.60;;
68432;SDS011;55412;51.350;17.056;2023-09-07T09:17:28;6.63;;;4.35;;
68432;SDS011;55412;51.350;17.056;2023-09-07T09:19:55;8.30;;;4.20;;
68432;SDS011;55412;51.350;17.056;2023-09-07T09:22:21;6.60;;;4.07;;
68432;SDS011;55412;51.350;17.056;2023-09-07T09:24:49;8.85;;;4.70;;
68432;SDS011;55412;51.350;17.056;2023-09-07T09:27:15;7.67;;;4.03;;
68432;SDS011;55412;51.350;17.056;2023-09-07T09:29:45;7.82;;;4.40;;
68432;SDS011;55412;51.350;17.056;2023-09-07T09:32:13;7.07;;;4.63;;
68432;SDS011;55412;51.350;17.056;2023-09-07T09:34:39;6.65;;;4.28;;
68432;SDS011;55412;51.350;17.056;2023-09-07T09:37:12;11.23;;;4.28;;
68432;SDS011;55412;51.350;17.056;2023-09-07T09:39:40;8.50;;;4.30;;
68432;SDS011;55412;51.350;17.056;2023-09-07T09:42:07;7.15;;;4.50;;
68432;SDS011;55412;51.350;17.056;2023-09-07T09:44:34;9.02;;;4.90;;
68432;SDS011;55412;51.350;17.056;2023-09-07T09:47:01;7.85;;;4.80;;
68432;SDS011;55412;51.350;17.056;2023-09-07T09:49:28;6.18;;;4.47;;
68432;SDS011;55412;51.350;17.056;2023-09-07T09:51:55;11.10;;;4.50;;
68432;SDS011;55412;51.350;17.056;2023-09-07T09:54:23;5.78;;;4.13;;
68432;SDS011;55412;51.350;17.056;2023-09-07T09:56:51;10.38;;;4.53;;
68432;SDS011;55412;51.350;17.056;2023-09-07T09:59:19;6.30;;;3.83;;
68432;SDS011;55412;51.350;17.056;2023-09-07T10:01:46;7.72;;;4.07;;
68432;SDS011;55412;51.350;17.056;2023-09-07T10:04:17;7.03;;;4.43;;
68432;SDS011;55412;51.350;17.056;2023-09-07T10:06:55;7.15;;;4.30;;
68432;SDS011;55412;51.350;17.056;2023-09-07T10:09:29;6.30;;;3.95;;
68432;SDS011;55412;51.350;17.056;2023-09-07T10:11:58;9.60;;;4.30;;
68432;SDS011;55412;51.350;17.056;2023-09-07T10:14:25;6.68;;;4.60;;
68432;SDS011;55412;51.350;17.056;2023-09-07T10:16:52;7.73;;;4.10;;
68432;SDS011;55412;51.350;17.056;2023-09-07T10:19:25;9.25;;;4.57;;
68432;SDS011;55412;51.350;17.056;2023-09-07T10:21:55;6.45;;;4.55;;
68432;SDS011;55412;51.350;17.056;2023-09-07T10:26:56;6.80;;;4.57;;
68432;SDS011;55412;51.350;17.056;2023-09-07T10:29:43;7.20;;;3.97;;
68432;SDS011;55412;51.350;17.056;2023-09-07T10:32:11;7.25;;;3.80;;
68432;SDS011;55412;51.350;17.056;2023-09-07T10:34:40;7.03;;;4.30;;
68432;SDS011;55412;51.350;17.056;2023-09-07T10:37:10;6.30;;;3.97;;
68432;SDS011;55412;51.350;17.056;2023-09-07T10:39:41;9.32;;;3.90;;
68432;SDS011;55412;51.350;17.056;2023-09-07T10:42:25;7.30;;;3.73;;
68432;SDS011;55412;51.350;17.056;2023-09-07T10:44:52;5.93;;;3.35;;
68432;SDS011;55412;51.350;17.056;2023-09-07T10:47:19;7.07;;;4.03;;
68432;SDS011;55412;51.350;17.056;2023-09-07T10:49:45;6.25;;;3.42;;
68432;SDS011;55412;51.350;17.056;2023-09-07T10:52:11;7.55;;;4.03;;
68432;SDS011;55412;51.350;17.056;2023-09-07T10:54:38;6.37;;;3.70;;
68432;SDS011;55412;51.350;17.056;2023-09-07T10:57:11;8.43;;;4.03;;
68432;SDS011;55412;51.350;17.056;2023-09-07T10:59:45;6.75;;;3.00;;
68432;SDS011;55412;51.350;17.056;2023-09-07T11:02:12;8.00;;;3.78;;
68432;SDS011;55412;51.350;17.056;2023-09-07T11:04:40;10.07;;;4.22;;
68432;SDS011;55412;51.350;17.056;2023-09-07T11:07:06;10.00;;;4.27;;
68432;SDS011;55412;51.350;17.056;2023-09-07T11:09:34;7.10;;;3.33;;
68432;SDS011;55412;51.350;17.056;2023-09-07T11:12:17;7.10;;;3.92;;
68432;SDS011;55412;51.350;17.056;2023-09-07T11:14:49;7.55;;;3.95;;
68432;SDS011;55412;51.350;17.056;2023-09-07T11:17:17;6.13;;;3.88;;
68432;SDS011;55412;51.350;17.056;2023-09-07T11:19:43;6.40;;;3.63;;
68432;SDS011;55412;51.350;17.056;2023-09-07T11:22:09;11.15;;;3.80;;
68432;SDS011;55412;51.350;17.056;2023-09-07T11:24:36;7.68;;;3.20;;
68432;SDS011;55412;51.350;17.056;2023-09-07T11:27:02;7.57;;;4.00;;
68432;SDS011;55412;51.350;17.056;2023-09-07T11:29:32;7.03;;;3.80;;
68432;SDS011;55412;51.350;17.056;2023-09-07T11:32:08;6.67;;;3.50;;
68432;SDS011;55412;51.350;17.056;2023-09-07T11:34:35;6.38;;;3.53;;
68432;SDS011;55412;51.350;17.056;2023-09-07T11:37:17;6.32;;;3.90;;
68432;SDS011;55412;51.350;17.056;2023-09-07T11:39:48;7.22;;;3.40;;
68432;SDS011;55412;51.350;17.056;2023-09-07T11:42:14;9.85;;;3.83;;
68432;SDS011;55412;51.350;17.056;2023-09-07T11:44:40;6.97;;;3.73;;
68432;SDS011;55412;51.350;17.056;2023-09-07T11:47:06;6.50;;;3.20;;
68432;SDS011;55412;51.350;17.056;2023-09-07T11:49:32;5.95;;;3.25;;
68432;SDS011;55412;51.350;17.056;2023-09-07T11:51:59;5.85;;;2.55;;
68432;SDS011;55412;51.350;17.056;2023-09-07T11:54:25;6.25;;;3.05;;
68432;SDS011;55412;51.350;17.056;2023-09-07T11:56:52;5.00;;;2.20;;
68432;SDS011;55412;51.350;17.056;2023-09-07T11:59:18;5.28;;;2.90;;
68432;SDS011;55412;51.350;17.056;2023-09-07T12:01:44;9.40;;;3.40;;
68432;SDS011;55412;51.350;17.056;2023-09-07T12:04:10;5.30;;;2.72;;
68432;SDS011;55412;51.350;17.056;2023-09-07T12:06:37;7.80;;;3.42;;
68432;SDS011;55412;51.350;17.056;2023-09-07T12:09:04;6.33;;;3.23;;
68432;SDS011;55412;51.350;17.056;2023-09-07T12:11:35;6.63;;;3.20;;
68432;SDS011;55412;51.350;17.056;2023-09-07T12:14:01;6.38;;;3.40;;
68432;SDS011;55412;51.350;17.056;2023-09-07T12:16:28;6.00;;;3.17;;
68432;SDS011;55412;51.350;17.056;2023-09-07T12:18:55;6.25;;;3.45;;
68432;SDS011;55412;51.350;17.056;2023-09-07T12:21:21;5.03;;;2.63;;
68432;SDS011;55412;51.350;17.056;2023-09-07T12:23:48;5.93;;;2.90;;
68432;SDS011;55412;51.350;17.056;2023-09-07T12:26:14;5.55;;;3.33;;
68432;SDS011;55412;51.350;17.056;2023-09-07T12:28:42;7.78;;;2.83;;
68432;SDS011;55412;51.350;17.056;2023-09-07T12:31:09;7.57;;;3.10;;
68432;SDS011;55412;51.350;17.056;2023-09-07T12:33:36;6.00;;;2.70;;
68432;SDS011;55412;51.350;17.056;2023-09-07T12:36:03;8.60;;;3.65;;
68432;SDS011;55412;51.350;17.056;2023-09-07T12:38:34;12.23;;;4.13;;
68432;SDS011;55412;51.350;17.056;2023-09-07T12:41:00;8.60;;;3.28;;
68432;SDS011;55412;51.350;17.056;2023-09-07T12:43:26;5.25;;;3.15;;
68432;SDS011;55412;51.350;17.056;2023-09-07T12:45:53;5.63;;;2.77;;
68432;SDS011;55412;51.350;17.056;2023-09-07T12:48:19;6.57;;;3.75;;
68432;SDS011;55412;51.350;17.056;2023-09-07T12:50:45;6.40;;;3.13;;
68432;SDS011;55412;51.350;17.056;2023-09-07T12:53:12;6.07;;;3.30;;
68432;SDS011;55412;51.350;17.056;2023-09-07T12:55:38;5.65;;;3.00;;
68432;SDS011;55412;51.350;17.056;2023-09-07T12:58:04;11.20;;;3.07;;
68432;SDS011;55412;51.350;17.056;2023-09-07T13:00:30;5.97;;;3.20;;
68432;SDS011;55412;51.350;17.056;2023-09-07T13:02:56;9.18;;;3.65;;
68432;SDS011;55412;51.350;17.056;2023-09-07T13:05:24;6.63;;;3.20;;
68432;SDS011;55412;51.350;17.056;2023-09-07T13:07:50;6.63;;;2.88;;
68432;SDS011;55412;51.350;17.056;2023-09-07T13:10:17;7.93;;;3.07;;
68432;SDS011;55412;51.350;17.056;2023-09-07T13:12:43;7.10;;;2.78;;
68432;SDS011;55412;51.350;17.056;2023-09-07T13:15:10;7.18;;;3.22;;
68432;SDS011;55412;51.350;17.056;2023-09-07T13:17:36;6.72;;;2.83;;
68432;SDS011;55412;51.350;17.056;2023-09-07T13:20:02;5.90;;;2.85;;
68432;SDS011;55412;51.350;17.056;2023-09-07T13:22:29;6.40;;;3.00;;
68432;SDS011;55412;51.350;17.056;2023-09-07T13:24:56;6.90;;;3.00;;
68432;SDS011;55412;51.350;17.056;2023-09-07T13:27:22;6.95;;;2.67;;
68432;SDS011;55412;51.350;17.056;2023-09-07T13:29:50;5.55;;;2.75;;
68432;SDS011;55412;51.350;17.056;2023-09-07T13:32:17;6.45;;;3.17;;
68432;SDS011;55412;51.350;17.056;2023-09-07T13:34:43;5.67;;;3.50;;
68432;SDS011;55412;51.350;17.056;2023-09-07T13:37:09;5.40;;;2.72;;
68432;SDS011;55412;51.350;17.056;2023-09-07T13:39:35;5.72;;;2.65;;
68432;SDS011;55412;51.350;17.056;2023-09-07T13:42:02;6.00;;;2.50;;
68432;SDS011;55412;51.350;17.056;2023-09-07T13:44:28;6.30;;;3.53;;
68432;SDS011;55412;51.350;17.056;2023-09-07T13:46:54;6.57;;;2.97;;
68432;SDS011;55412;51.350;17.056;2023-09-07T13:49:21;5.43;;;2.70;;
68432;SDS011;55412;51.350;17.056;2023-09-07T13:51:47;7.97;;;3.33;;
68432;SDS011;55412;51.350;17.056;2023-09-07T13:54:14;5.50;;;2.50;;
68432;SDS011;55412;51.350;17.056;2023-09-07T13:56:40;6.97;;;3.03;;
68432;SDS011;55412;51.350;17.056;2023-09-07T13:59:10;7.23;;;2.87;;
68432;SDS011;55412;51.350;17.056;2023-09-07T14:01:36;7.70;;;3.00;;
68432;SDS011;55412;51.350;17.056;2023-09-07T14:04:09;7.15;;;3.40;;
68432;SDS011;55412;51.350;17.056;2023-09-07T14:06:35;4.80;;;2.20;;
68432;SDS011;55412;51.350;17.056;2023-09-07T14:09:02;7.43;;;2.53;;
68432;SDS011;55412;51.350;17.056;2023-09-07T14:11:28;7.67;;;2.27;;
68432;SDS011;55412;51.350;17.056;2023-09-07T14:13:54;5.68;;;3.05;;
68432;SDS011;55412;51.350;17.056;2023-09-07T14:16:20;5.80;;;3.17;;
68432;SDS011;55412;51.350;17.056;2023-09-07T14:18:47;7.90;;;3.53;;
68432;SDS011;55412;51.350;17.056;2023-09-07T14:21:15;6.03;;;2.78;;
68432;SDS011;55412;51.350;17.056;2023-09-07T14:23:42;4.93;;;2.30;;
68432;SDS011;55412;51.350;17.056;2023-09-07T14:26:09;7.22;;;2.65;;
68432;SDS011;55412;51.350;17.056;2023-09-07T14:28:36;8.07;;;2.90;;
68432;SDS011;55412;51.350;17.056;2023-09-07T14:31:03;7.57;;;3.33;;
68432;SDS011;55412;51.350;17.056;2023-09-07T14:33:32;8.88;;;3.90;;